sensor_id;sensor_type;location;lat;lon;timestamp;pressure;altitude;pressure_sealevel;temperature;humidity
52185;BME280;38160;52.876;18.778;2022-08-19T00:02:07;100423.66;;;20.82;76.87
52185;BME280;38160;52.876;18.778;2022-08-19T00:04:39;100429.14;;;20.82;76.93
52185;BME280;38160;52.876;18.778;2022-08-19T00:07:11;100427.23;;;20.83;76.98
52185;BME280;38160;52.876;18.778;2022-08-19T00:09:42;100427.23;;;20.83;77.18
52185;BME280;38160;52.876;18.778;2022-08-19T00:12:14;100431.06;;;20.81;77.28
52185;BME280;38160;52.876;18.778;2022-08-19T00:14:46;100429.91;;;20.80;77.35
52185;BME280;38160;52.876;18.778;2022-08-19T00:17:18;100426.34;;;20.79;77.52
52185;BME280;38160;52.876;18.778;2022-08-19T00:19:49;100432.66;;;20.80;77.52
52185;BME280;38160;52.876;18.778;2022-08-19T00:22:21;100427.40;;;20.78;77.72
52185;BME280;38160;52.876;18.778;2022-08-19T00:24:53;100435.62;;;20.78;77.83
52185;BME280;38160;52.876;18.778;2022-08-19T00:27:25;100430.46;;;20.79;78.04
52185;BME280;38160;52.876;18.778;2022-08-19T00:29:56;100426.03;;;20.78;78.33
52185;BME280;38160;52.876;18.778;2022-08-19T00:32:29;100421.92;;;20.78;78.36
52185;BME280;38160;52.876;18.778;2022-08-19T00:35:01;100422.23;;;20.79;78.42
52185;BME280;38160;52.876;18.778;2022-08-19T00:37:33;100417.63;;;20.83;78.45
52185;BME280;38160;52.876;18.778;2022-08-19T00:40:07;100424.26;;;20.84;78.52
52185;BME280;38160;52.876;18.778;2022-08-19T00:42:39;100421.46;;;20.81;78.66
52185;BME280;38160;52.876;18.778;2022-08-19T00:45:18;100426.95;;;20.81;78.70
52185;BME280;38160;52.876;18.778;2022-08-19T00:47:48;100423.89;;;20.80;78.79
52185;BME280;38160;52.876;18.778;2022-08-19T00:50:20;100419.17;;;20.78;78.89
52185;BME280;38160;52.876;18.778;2022-08-19T00:52:52;100411.49;;;20.78;78.90
52185;BME280;38160;52.876;18.778;2022-08-19T00:55:26;100418.03;;;20.77;78.99
52185;BME280;38160;52.876;18.778;2022-08-19T00:58:02;100416.60;;;20.74;79.11
52185;BME280;38160;52.876;18.778;2022-08-19T01:00:39;100419.29;;;20.72;79.16
52185;BME280;38160;52.876;18.778;2022-08-19T01:03:13;100424.72;;;20.69;79.26
52185;BME280;38160;52.876;18.778;2022-08-19T01:05:49;100428.52;;;20.68;79.41
52185;BME280;38160;52.876;18.778;2022-08-19T01:08:23;100424.59;;;20.64;79.48
52185;BME280;38160;52.876;18.778;2022-08-19T01:10:56;100421.77;;;20.61;79.58
52185;BME280;38160;52.876;18.778;2022-08-19T01:13:30;100424.45;;;20.59;79.70
52185;BME280;38160;52.876;18.778;2022-08-19T01:16:07;100422.10;;;20.53;81.18
52185;BME280;38160;52.876;18.778;2022-08-19T01:18:41;100423.41;;;20.51;79.98
52185;BME280;38160;52.876;18.778;2022-08-19T01:21:37;100423.04;;;20.47;80.01
52185;BME280;38160;52.876;18.778;2022-08-19T01:24:08;100423.27;;;20.46;80.13
52185;BME280;38160;52.876;18.778;2022-08-19T01:26:41;100416.58;;;20.41;80.34
52185;BME280;38160;52.876;18.778;2022-08-19T01:29:14;100414.60;;;20.39;80.27
52185;BME280;38160;52.876;18.778;2022-08-19T01:31:46;100415.31;;;20.35;80.40
52185;BME280;38160;52.876;18.778;2022-08-19T01:34:18;100416.33;;;20.31;80.42
52185;BME280;38160;52.876;18.778;2022-08-19T01:36:50;100415.73;;;20.29;80.50
52185;BME280;38160;52.876;18.778;2022-08-19T01:39:24;100411.02;;;20.27;80.63
52185;BME280;38160;52.876;18.778;2022-08-19T01:41:56;100411.24;;;20.26;80.62
52185;BME280;38160;52.876;18.778;2022-08-19T01:44:28;100408.44;;;20.23;80.88
52185;BME280;38160;52.876;18.778;2022-08-19T01:46:59;100411.88;;;20.18;80.90
52185;BME280;38160;52.876;18.778;2022-08-19T01:49:31;100411.56;;;20.17;80.96
52185;BME280;38160;52.876;18.778;2022-08-19T01:52:04;100409.08;;;20.16;81.08
52185;BME280;38160;52.876;18.778;2022-08-19T01:54:36;100405.42;;;20.13;81.40
52185;BME280;38160;52.876;18.778;2022-08-19T01:57:10;100397.74;;;20.12;81.50
52185;BME280;38160;52.876;18.778;2022-08-19T01:59:45;100396.47;;;20.06;81.52
52185;BME280;38160;52.876;18.778;2022-08-19T02:02:17;100397.55;;;20.05;81.51
52185;BME280;38160;52.876;18.778;2022-08-19T02:04:49;100403.25;;;20.03;81.50
52185;BME280;38160;52.876;18.778;2022-08-19T02:07:22;100402.65;;;20.01;81.59
52185;BME280;38160;52.876;18.778;2022-08-19T02:10:10;100403.13;;;19.98;81.58
52185;BME280;38160;52.876;18.778;2022-08-19T02:12:51;100401.92;;;19.94;81.64
52185;BME280;38160;52.876;18.778;2022-08-19T02:15:24;100393.31;;;19.90;82.04
52185;BME280;38160;52.876;18.778;2022-08-19T02:17:58;100381.76;;;19.88;82.27
52185;BME280;38160;52.876;18.778;2022-08-19T02:20:30;100382.74;;;19.85;82.30
52185;BME280;38160;52.876;18.778;2022-08-19T02:23:02;100376.70;;;19.83;82.30
52185;BME280;38160;52.876;18.778;2022-08-19T02:25:38;100375.48;;;19.78;82.35
52185;BME280;38160;52.876;18.778;2022-08-19T02:28:10;100372.65;;;19.76;82.48
52185;BME280;38160;52.876;18.778;2022-08-19T02:30:42;100363.77;;;19.71;82.54
52185;BME280;38160;52.876;18.778;2022-08-19T02:33:14;100363.66;;;19.69;82.49
52185;BME280;38160;52.876;18.778;2022-08-19T02:35:46;100368.78;;;19.65;82.48
52185;BME280;38160;52.876;18.778;2022-08-19T02:38:18;100365.66;;;19.62;82.77
52185;BME280;38160;52.876;18.778;2022-08-19T02:41:02;100368.08;;;19.61;82.96
52185;BME280;38160;52.876;18.778;2022-08-19T02:43:39;100369.16;;;19.59;83.08
52185;BME280;38160;52.876;18.778;2022-08-19T02:48:57;100374.03;;;19.57;83.47
52185;BME280;38160;52.876;18.778;2022-08-19T02:51:41;100377.09;;;19.58;83.87
52185;BME280;38160;52.876;18.778;2022-08-19T02:54:13;100358.67;;;19.47;83.76
52185;BME280;38160;52.876;18.778;2022-08-19T02:56:49;100370.75;;;19.58;84.35
52185;BME280;38160;52.876;18.778;2022-08-19T02:59:22;100368.47;;;19.64;84.43
52185;BME280;38160;52.876;18.778;2022-08-19T03:02:06;100365.45;;;19.72;84.51
52185;BME280;38160;52.876;18.778;2022-08-19T03:04:37;100361.25;;;19.79;84.52
52185;BME280;38160;52.876;18.778;2022-08-19T03:07:09;100361.92;;;19.84;84.54
52185;BME280;38160;52.876;18.778;2022-08-19T03:09:49;100354.75;;;19.92;84.66
52185;BME280;38160;52.876;18.778;2022-08-19T03:12:30;100361.12;;;19.95;84.67
52185;BME280;38160;52.876;18.778;2022-08-19T03:15:11;100359.53;;;19.96;84.78
52185;BME280;38160;52.876;18.778;2022-08-19T03:17:54;100355.42;;;19.96;84.75
52185;BME280;38160;52.876;18.778;2022-08-19T03:20:26;100355.77;;;20.00;84.80
52185;BME280;38160;52.876;18.778;2022-08-19T03:23:00;100353.89;;;20.01;86.23
52185;BME280;38160;52.876;18.778;2022-08-19T03:25:38;100358.28;;;20.02;85.16
52185;BME280;38160;52.876;18.778;2022-08-19T03:28:14;100361.63;;;20.04;85.12
52185;BME280;38160;52.876;18.778;2022-08-19T03:31:04;100356.27;;;20.18;85.66
52185;BME280;38160;52.876;18.778;2022-08-19T03:33:38;100360.82;;;20.36;85.67
52185;BME280;38160;52.876;18.778;2022-08-19T03:36:15;100368.52;;;20.57;85.56
52185;BME280;38160;52.876;18.778;2022-08-19T03:38:50;100366.64;;;20.72;85.31
52185;BME280;38160;52.876;18.778;2022-08-19T03:41:27;100365.63;;;20.88;85.14
52185;BME280;38160;52.876;18.778;2022-08-19T03:43:59;100369.81;;;21.02;85.02
52185;BME280;38160;52.876;18.778;2022-08-19T03:46:32;100363.70;;;21.12;84.84
52185;BME280;38160;52.876;18.778;2022-08-19T03:49:04;100356.48;;;21.20;84.73
52185;BME280;38160;52.876;18.778;2022-08-19T03:51:38;100356.34;;;21.27;84.64
52185;BME280;38160;52.876;18.778;2022-08-19T03:54:12;100348.34;;;21.37;84.61
52185;BME280;38160;52.876;18.778;2022-08-19T03:56:46;100338.08;;;21.44;84.46
52185;BME280;38160;52.876;18.778;2022-08-19T03:59:23;100347.35;;;21.55;84.43
52185;BME280;38160;52.876;18.778;2022-08-19T04:02:01;100337.51;;;21.56;84.01
52185;BME280;38160;52.876;18.778;2022-08-19T04:04:35;100342.05;;;21.51;83.96
52185;BME280;38160;52.876;18.778;2022-08-19T04:07:09;100341.95;;;21.46;84.09
52185;BME280;38160;52.876;18.778;2022-08-19T04:09:42;100332.63;;;21.47;84.18
52185;BME280;38160;52.876;18.778;2022-08-19T04:12:13;100343.33;;;21.46;84.18
52185;BME280;38160;52.876;18.778;2022-08-19T04:14:46;100340.27;;;21.45;84.20
52185;BME280;38160;52.876;18.778;2022-08-19T04:17:18;100354.27;;;21.43;84.13
52185;BME280;38160;52.876;18.778;2022-08-19T04:19:50;100359.44;;;21.42;84.09
52185;BME280;38160;52.876;18.778;2022-08-19T04:22:21;100353.95;;;21.42;84.22
52185;BME280;38160;52.876;18.778;2022-08-19T04:24:54;100349.29;;;21.42;84.28
52185;BME280;38160;52.876;18.778;2022-08-19T04:27:25;100353.27;;;21.49;84.30
52185;BME280;38160;52.876;18.778;2022-08-19T04:29:57;100354.77;;;21.54;84.32
52185;BME280;38160;52.876;18.778;2022-08-19T04:32:29;100354.81;;;21.57;84.32
52185;BME280;38160;52.876;18.778;2022-08-19T04:35:02;100348.98;;;21.68;84.23
52185;BME280;38160;52.876;18.778;2022-08-19T04:37:33;100348.98;;;21.68;84.23
52185;BME280;38160;52.876;18.778;2022-08-19T04:40:06;100354.26;;;21.86;84.32
52185;BME280;38160;52.876;18.778;2022-08-19T04:42:46;100355.05;;;21.98;84.37
52185;BME280;38160;52.876;18.778;2022-08-19T04:45:18;100347.55;;;22.11;84.12
52185;BME280;38160;52.876;18.778;2022-08-19T04:47:53;100345.55;;;22.20;83.89
52185;BME280;38160;52.876;18.778;2022-08-19T04:50:27;100365.63;;;22.35;83.79
52185;BME280;38160;52.876;18.778;2022-08-19T04:52:58;100374.44;;;22.54;84.11
52185;BME280;38160;52.876;18.778;2022-08-19T04:55:30;100374.44;;;22.54;84.11
52185;BME280;38160;52.876;18.778;2022-08-19T04:58:02;100369.12;;;22.64;83.49
52185;BME280;38160;52.876;18.778;2022-08-19T05:00:33;100370.11;;;22.75;83.28
52185;BME280;38160;52.876;18.778;2022-08-19T05:03:07;100370.83;;;22.87;83.15
52185;BME280;38160;52.876;18.778;2022-08-19T05:05:40;100364.08;;;22.95;83.04
52185;BME280;38160;52.876;18.778;2022-08-19T05:08:13;100368.05;;;23.02;82.91
52185;BME280;38160;52.876;18.778;2022-08-19T05:10:51;100357.69;;;23.09;82.84
52185;BME280;38160;52.876;18.778;2022-08-19T05:13:23;100357.01;;;23.19;82.68
52185;BME280;38160;52.876;18.778;2022-08-19T05:15:57;100347.21;;;23.28;82.04
52185;BME280;38160;52.876;18.778;2022-08-19T05:18:29;100340.58;;;23.26;82.04
52185;BME280;38160;52.876;18.778;2022-08-19T05:21:20;100332.64;;;23.30;82.28
52185;BME280;38160;52.876;18.778;2022-08-19T05:24:11;100333.06;;;23.41;82.37
52185;BME280;38160;52.876;18.778;2022-08-19T05:26:46;100341.47;;;23.54;82.21
52185;BME280;38160;52.876;18.778;2022-08-19T05:29:21;100341.87;;;23.65;82.11
52185;BME280;38160;52.876;18.778;2022-08-19T05:31:54;100335.86;;;23.71;81.72
52185;BME280;38160;52.876;18.778;2022-08-19T05:34:27;100342.22;;;23.72;81.36
52185;BME280;38160;52.876;18.778;2022-08-19T05:37:00;100343.02;;;23.69;81.20
52185;BME280;38160;52.876;18.778;2022-08-19T05:39:35;100347.73;;;23.72;81.34
52185;BME280;38160;52.876;18.778;2022-08-19T05:42:10;100343.95;;;23.78;81.27
52185;BME280;38160;52.876;18.778;2022-08-19T05:44:43;100351.50;;;23.87;80.81
52185;BME280;38160;52.876;18.778;2022-08-19T05:47:16;100355.98;;;23.94;81.01
52185;BME280;38160;52.876;18.778;2022-08-19T05:49:50;100358.57;;;24.05;80.87
52185;BME280;38160;52.876;18.778;2022-08-19T05:52:21;100359.77;;;24.17;80.60
52185;BME280;38160;52.876;18.778;2022-08-19T05:54:54;100362.95;;;24.31;80.66
52185;BME280;38160;52.876;18.778;2022-08-19T05:57:26;100377.92;;;24.40;80.41
52185;BME280;38160;52.876;18.778;2022-08-19T05:59:59;100372.53;;;24.50;78.90
52185;BME280;38160;52.876;18.778;2022-08-19T06:02:34;100370.64;;;24.59;80.02
52185;BME280;38160;52.876;18.778;2022-08-19T06:05:07;100367.40;;;24.67;79.71
52185;BME280;38160;52.876;18.778;2022-08-19T06:07:40;100360.28;;;24.76;79.75
52185;BME280;38160;52.876;18.778;2022-08-19T06:10:12;100357.03;;;24.84;79.31
52185;BME280;38160;52.876;18.778;2022-08-19T06:12:45;100353.72;;;24.85;78.96
52185;BME280;38160;52.876;18.778;2022-08-19T06:15:16;100355.43;;;24.94;79.21
52185;BME280;38160;52.876;18.778;2022-08-19T06:17:48;100359.08;;;25.04;79.02
52185;BME280;38160;52.876;18.778;2022-08-19T06:20:20;100357.76;;;25.12;78.96
52185;BME280;38160;52.876;18.778;2022-08-19T06:22:52;100366.66;;;25.19;78.61
52185;BME280;38160;52.876;18.778;2022-08-19T06:25:24;100358.13;;;25.26;78.39
52185;BME280;38160;52.876;18.778;2022-08-19T06:27:56;100350.72;;;25.37;78.05
52185;BME280;38160;52.876;18.778;2022-08-19T06:30:28;100350.73;;;25.47;78.00
52185;BME280;38160;52.876;18.778;2022-08-19T06:33:00;100351.34;;;25.54;77.81
52185;BME280;38160;52.876;18.778;2022-08-19T06:35:32;100355.23;;;25.63;77.30
52185;BME280;38160;52.876;18.778;2022-08-19T06:38:03;100355.27;;;25.73;77.27
52185;BME280;38160;52.876;18.778;2022-08-19T06:40:36;100358.86;;;25.82;77.07
52185;BME280;38160;52.876;18.778;2022-08-19T06:43:09;100353.66;;;25.88;76.82
52185;BME280;38160;52.876;18.778;2022-08-19T06:45:40;100355.90;;;25.96;75.64
52185;BME280;38160;52.876;18.778;2022-08-19T06:48:13;100355.07;;;26.03;73.93
52185;BME280;38160;52.876;18.778;2022-08-19T06:50:45;100355.92;;;26.06;75.93
52185;BME280;38160;52.876;18.778;2022-08-19T06:53:18;100349.30;;;26.15;75.92
52185;BME280;38160;52.876;18.778;2022-08-19T06:55:50;100352.87;;;26.23;75.47
52185;BME280;38160;52.876;18.778;2022-08-19T06:58:44;100341.56;;;26.35;75.36
52185;BME280;38160;52.876;18.778;2022-08-19T07:01:18;100341.83;;;26.46;74.60
52185;BME280;38160;52.876;18.778;2022-08-19T07:03:51;100342.39;;;26.56;74.27
52185;BME280;38160;52.876;18.778;2022-08-19T07:06:26;100339.88;;;26.67;74.43
52185;BME280;38160;52.876;18.778;2022-08-19T07:09:02;100330.20;;;26.75;74.06
52185;BME280;38160;52.876;18.778;2022-08-19T07:11:46;100334.90;;;26.77;73.58
52185;BME280;38160;52.876;18.778;2022-08-19T07:14:22;100337.94;;;26.83;73.05
52185;BME280;38160;52.876;18.778;2022-08-19T07:16:57;100330.42;;;26.91;70.97
52185;BME280;38160;52.876;18.778;2022-08-19T07:19:29;100334.57;;;26.99;72.83
52185;BME280;38160;52.876;18.778;2022-08-19T07:22:08;100327.63;;;27.04;72.37
52185;BME280;38160;52.876;18.778;2022-08-19T07:24:56;100311.00;;;27.04;71.56
52185;BME280;38160;52.876;18.778;2022-08-19T07:27:27;100330.36;;;27.27;71.75
52185;BME280;38160;52.876;18.778;2022-08-19T07:30:05;100325.37;;;27.22;71.06
52185;BME280;38160;52.876;18.778;2022-08-19T07:33:13;100330.36;;;27.27;69.24
52185;BME280;38160;52.876;18.778;2022-08-19T07:35:44;100335.27;;;27.43;70.58
52185;BME280;38160;52.876;18.778;2022-08-19T07:38:18;100334.11;;;27.52;69.92
52185;BME280;38160;52.876;18.778;2022-08-19T07:40:52;100334.35;;;27.55;69.72
52185;BME280;38160;52.876;18.778;2022-08-19T07:43:25;100339.59;;;27.65;69.34
52185;BME280;38160;52.876;18.778;2022-08-19T07:45:58;100335.13;;;27.66;69.29
52185;BME280;38160;52.876;18.778;2022-08-19T07:48:30;100338.13;;;27.75;68.91
52185;BME280;38160;52.876;18.778;2022-08-19T07:51:05;100334.22;;;27.89;68.42
52185;BME280;38160;52.876;18.778;2022-08-19T07:53:41;100335.51;;;27.99;68.23
52185;BME280;38160;52.876;18.778;2022-08-19T07:56:13;100324.66;;;28.05;67.68
52185;BME280;38160;52.876;18.778;2022-08-19T07:58:49;100323.27;;;28.05;67.80
52185;BME280;38160;52.876;18.778;2022-08-19T08:01:27;100327.67;;;28.11;67.25
52185;BME280;38160;52.876;18.778;2022-08-19T08:04:01;100325.67;;;28.19;66.90
52185;BME280;38160;52.876;18.778;2022-08-19T08:06:52;100325.61;;;28.25;65.36
52185;BME280;38160;52.876;18.778;2022-08-19T08:09:44;100323.15;;;28.21;66.35
52185;BME280;38160;52.876;18.778;2022-08-19T08:12:19;100327.26;;;28.26;65.34
52185;BME280;38160;52.876;18.778;2022-08-19T08:14:58;100326.10;;;28.32;65.66
52185;BME280;38160;52.876;18.778;2022-08-19T08:17:32;100328.87;;;28.32;65.40
52185;BME280;38160;52.876;18.778;2022-08-19T08:20:09;100331.40;;;28.31;65.13
52185;BME280;38160;52.876;18.778;2022-08-19T08:22:45;100299.03;;;28.18;64.41
52185;BME280;38160;52.876;18.778;2022-08-19T08:25:23;100328.87;;;28.32;64.32
52185;BME280;38160;52.876;18.778;2022-08-19T08:27:55;100333.89;;;28.30;63.86
52185;BME280;38160;52.876;18.778;2022-08-19T08:30:28;100339.64;;;28.38;63.22
52185;BME280;38160;52.876;18.778;2022-08-19T08:33:01;100333.02;;;28.34;63.34
52185;BME280;38160;52.876;18.778;2022-08-19T08:35:32;100333.02;;;28.34;63.34
52185;BME280;38160;52.876;18.778;2022-08-19T08:38:04;100354.30;;;28.49;61.63
52185;BME280;38160;52.876;18.778;2022-08-19T08:40:48;100348.38;;;28.61;62.66
52185;BME280;38160;52.876;18.778;2022-08-19T08:43:34;100344.44;;;28.65;62.43
52185;BME280;38160;52.876;18.778;2022-08-19T08:46:41;100338.31;;;28.68;61.98
52185;BME280;38160;52.876;18.778;2022-08-19T08:49:54;100342.14;;;28.72;61.88
52185;BME280;38160;52.876;18.778;2022-08-19T08:52:33;100338.70;;;28.83;61.75
52185;BME280;38160;52.876;18.778;2022-08-19T08:55:13;100336.86;;;28.99;60.84
52185;BME280;38160;52.876;18.778;2022-08-19T08:57:51;100346.47;;;29.12;60.83
52185;BME280;38160;52.876;18.778;2022-08-19T09:00:38;100340.09;;;29.12;60.09
52185;BME280;38160;52.876;18.778;2022-08-19T09:03:25;100329.52;;;29.14;60.47
52185;BME280;38160;52.876;18.778;2022-08-19T09:06:13;100334.07;;;29.26;59.95
52185;BME280;38160;52.876;18.778;2022-08-19T09:11:55;100333.26;;;29.47;58.95
52185;BME280;38160;52.876;18.778;2022-08-19T09:14:41;100334.64;;;29.47;58.08
52185;BME280;38160;52.876;18.778;2022-08-19T09:17:25;100337.06;;;29.54;59.22
52185;BME280;38160;52.876;18.778;2022-08-19T09:20:25;100323.37;;;29.57;58.94
52185;BME280;38160;52.876;18.778;2022-08-19T09:22:44;100325.48;;;29.47;58.80
52185;BME280;38160;52.876;18.778;2022-08-19T09:25:20;100324.11;;;29.44;58.82
52185;BME280;38160;52.876;18.778;2022-08-19T09:28:10;100323.20;;;29.49;58.37
52185;BME280;38160;52.876;18.778;2022-08-19T09:30:54;100320.14;;;29.50;57.41
52185;BME280;38160;52.876;18.778;2022-08-19T09:33:26;100330.23;;;29.65;57.07
52185;BME280;38160;52.876;18.778;2022-08-19T09:36:06;100318.58;;;29.85;56.05
52185;BME280;38160;52.876;18.778;2022-08-19T09:38:39;100322.62;;;29.92;57.05
52185;BME280;38160;52.876;18.778;2022-08-19T09:41:14;100314.46;;;29.98;56.06
52185;BME280;38160;52.876;18.778;2022-08-19T09:43:50;100307.35;;;30.09;55.33
52185;BME280;38160;52.876;18.778;2022-08-19T09:46:25;100302.70;;;30.04;55.92
52185;BME280;38160;52.876;18.778;2022-08-19T09:48:59;100309.19;;;29.97;55.83
52185;BME280;38160;52.876;18.778;2022-08-19T09:51:32;100306.02;;;30.03;55.83
52185;BME280;38160;52.876;18.778;2022-08-19T09:54:06;100313.64;;;29.98;55.77
52185;BME280;38160;52.876;18.778;2022-08-19T09:56:38;100311.20;;;29.94;55.59
52185;BME280;38160;52.876;18.778;2022-08-19T09:59:10;100306.06;;;29.85;55.56
52185;BME280;38160;52.876;18.778;2022-08-19T10:01:43;100302.38;;;29.89;55.65
52185;BME280;38160;52.876;18.778;2022-08-19T10:04:15;100309.05;;;29.88;55.49
52185;BME280;38160;52.876;18.778;2022-08-19T10:06:47;100311.53;;;29.90;55.71
52185;BME280;38160;52.876;18.778;2022-08-19T10:09:20;100309.28;;;29.92;55.42
52185;BME280;38160;52.876;18.778;2022-08-19T10:11:52;100298.16;;;29.92;55.08
52185;BME280;38160;52.876;18.778;2022-08-19T10:14:29;100302.85;;;29.94;54.90
52185;BME280;38160;52.876;18.778;2022-08-19T10:17:04;100306.34;;;30.02;55.06
52185;BME280;38160;52.876;18.778;2022-08-19T10:19:36;100309.47;;;30.14;54.48
52185;BME280;38160;52.876;18.778;2022-08-19T10:22:08;100307.33;;;30.28;54.91
52185;BME280;38160;52.876;18.778;2022-08-19T10:24:39;100301.37;;;30.51;54.42
52185;BME280;38160;52.876;18.778;2022-08-19T10:27:13;100288.91;;;30.76;53.65
52185;BME280;38160;52.876;18.778;2022-08-19T10:29:49;100284.00;;;30.87;54.48
52185;BME280;38160;52.876;18.778;2022-08-19T10:32:20;100287.38;;;30.83;54.26
52185;BME280;38160;52.876;18.778;2022-08-19T10:34:52;100279.33;;;30.82;54.43
52185;BME280;38160;52.876;18.778;2022-08-19T10:37:24;100287.56;;;31.03;51.60
52185;BME280;38160;52.876;18.778;2022-08-19T10:39:56;100300.88;;;31.20;53.15
52185;BME280;38160;52.876;18.778;2022-08-19T10:42:28;100279.79;;;31.42;53.42
52185;BME280;38160;52.876;18.778;2022-08-19T10:45:03;100280.40;;;31.39;53.32
52185;BME280;38160;52.876;18.778;2022-08-19T10:47:37;100283.06;;;31.47;52.95
52185;BME280;38160;52.876;18.778;2022-08-19T10:50:09;100273.23;;;31.49;52.22
52185;BME280;38160;52.876;18.778;2022-08-19T10:53:03;100276.72;;;31.55;52.56
52185;BME280;38160;52.876;18.778;2022-08-19T10:55:35;100274.07;;;31.61;52.33
52185;BME280;38160;52.876;18.778;2022-08-19T10:58:25;100281.56;;;31.63;51.57
52185;BME280;38160;52.876;18.778;2022-08-19T11:00:58;100276.36;;;31.70;51.04
52185;BME280;38160;52.876;18.778;2022-08-19T11:03:30;100269.76;;;31.66;50.92
52185;BME280;38160;52.876;18.778;2022-08-19T11:06:04;100275.81;;;31.71;50.80
52185;BME280;38160;52.876;18.778;2022-08-19T11:08:37;100274.90;;;31.73;50.82
52185;BME280;38160;52.876;18.778;2022-08-19T11:11:09;100269.02;;;31.85;50.69
52185;BME280;38160;52.876;18.778;2022-08-19T11:13:41;100268.64;;;31.90;50.37
52185;BME280;38160;52.876;18.778;2022-08-19T11:16:20;100266.46;;;32.00;50.37
52185;BME280;38160;52.876;18.778;2022-08-19T11:18:52;100270.98;;;32.10;49.88
52185;BME280;38160;52.876;18.778;2022-08-19T11:21:35;100258.49;;;32.27;49.47
52185;BME280;38160;52.876;18.778;2022-08-19T11:24:16;100256.53;;;32.39;49.38
52185;BME280;38160;52.876;18.778;2022-08-19T11:26:51;100255.75;;;32.59;48.95
52185;BME280;38160;52.876;18.778;2022-08-19T11:29:24;100247.80;;;32.63;49.14
52185;BME280;38160;52.876;18.778;2022-08-19T11:31:56;100253.23;;;32.68;48.39
52185;BME280;38160;52.876;18.778;2022-08-19T11:34:28;100248.89;;;32.74;46.39
52185;BME280;38160;52.876;18.778;2022-08-19T11:37:01;100246.64;;;32.64;47.32
52185;BME280;38160;52.876;18.778;2022-08-19T11:39:35;100229.75;;;32.70;48.14
52185;BME280;38160;52.876;18.778;2022-08-19T11:42:07;100236.11;;;32.81;47.94
52185;BME280;38160;52.876;18.778;2022-08-19T11:44:57;100231.21;;;32.87;47.88
52185;BME280;38160;52.876;18.778;2022-08-19T11:47:29;100234.53;;;32.78;47.49
52185;BME280;38160;52.876;18.778;2022-08-19T11:50:02;100232.20;;;32.71;47.21
52185;BME280;38160;52.876;18.778;2022-08-19T11:52:34;100225.88;;;32.68;46.91
52185;BME280;38160;52.876;18.778;2022-08-19T11:55:07;100227.47;;;32.72;47.16
52185;BME280;38160;52.876;18.778;2022-08-19T11:57:39;100222.64;;;32.83;46.24
52185;BME280;38160;52.876;18.778;2022-08-19T12:00:15;100231.77;;;32.86;46.52
52185;BME280;38160;52.876;18.778;2022-08-19T12:02:47;100232.23;;;32.80;46.74
52185;BME280;38160;52.876;18.778;2022-08-19T12:05:18;100227.63;;;32.75;46.82
52185;BME280;38160;52.876;18.778;2022-08-19T12:07:50;100224.77;;;32.86;46.73
52185;BME280;38160;52.876;18.778;2022-08-19T12:10:23;100228.26;;;32.92;46.58
52185;BME280;38160;52.876;18.778;2022-08-19T12:12:54;100227.48;;;32.89;46.64
52185;BME280;38160;52.876;18.778;2022-08-19T12:15:27;100217.68;;;33.00;45.90
52185;BME280;38160;52.876;18.778;2022-08-19T12:17:59;100232.84;;;33.08;43.84
52185;BME280;38160;52.876;18.778;2022-08-19T12:20:35;100228.91;;;33.09;45.95
52185;BME280;38160;52.876;18.778;2022-08-19T12:23:09;100228.89;;;32.89;45.76
52185;BME280;38160;52.876;18.778;2022-08-19T12:25:46;100228.44;;;32.76;45.78
52185;BME280;38160;52.876;18.778;2022-08-19T12:28:24;100229.81;;;32.87;45.95
52185;BME280;38160;52.876;18.778;2022-08-19T12:30:56;100222.33;;;32.85;45.26
52185;BME280;38160;52.876;18.778;2022-08-19T12:33:28;100226.17;;;32.86;45.52
52185;BME280;38160;52.876;18.778;2022-08-19T12:36:03;100226.28;;;32.93;45.67
52185;BME280;38160;52.876;18.778;2022-08-19T12:38:37;100225.61;;;32.96;45.64
52185;BME280;38160;52.876;18.778;2022-08-19T12:41:12;100229.55;;;32.86;45.14
52185;BME280;38160;52.876;18.778;2022-08-19T12:43:45;100238.20;;;32.87;44.41
52185;BME280;38160;52.876;18.778;2022-08-19T12:46:19;100228.84;;;32.92;44.75
52185;BME280;38160;52.876;18.778;2022-08-19T12:48:51;100231.89;;;33.01;44.30
52185;BME280;38160;52.876;18.778;2022-08-19T12:51:24;100237.22;;;33.12;44.96
52185;BME280;38160;52.876;18.778;2022-08-19T12:53:57;100235.64;;;33.08;44.40
52185;BME280;38160;52.876;18.778;2022-08-19T12:56:29;100231.94;;;33.10;44.98
52185;BME280;38160;52.876;18.778;2022-08-19T12:59:02;100237.22;;;33.12;45.15
52185;BME280;38160;52.876;18.778;2022-08-19T13:01:35;100232.39;;;33.03;43.36
52185;BME280;38160;52.876;18.778;2022-08-19T13:04:06;100238.28;;;33.22;44.82
52185;BME280;38160;52.876;18.778;2022-08-19T13:06:38;100235.92;;;33.44;44.97
52185;BME280;38160;52.876;18.778;2022-08-19T13:09:10;100238.66;;;33.46;44.50
52185;BME280;38160;52.876;18.778;2022-08-19T13:11:42;100257.31;;;33.57;44.76
52185;BME280;38160;52.876;18.778;2022-08-19T13:14:14;100238.25;;;33.59;44.02
52185;BME280;38160;52.876;18.778;2022-08-19T13:16:46;100245.25;;;33.59;43.99
52185;BME280;38160;52.876;18.778;2022-08-19T13:19:17;100238.25;;;33.59;43.74
52185;BME280;38160;52.876;18.778;2022-08-19T13:21:51;100236.86;;;33.68;44.18
52185;BME280;38160;52.876;18.778;2022-08-19T13:24:25;100227.06;;;33.68;44.11
52185;BME280;38160;52.876;18.778;2022-08-19T13:26:56;100231.52;;;33.69;43.97